sensor_id;sensor_type;location;lat;lon;timestamp;P1;durP1;ratioP1;P2;durP2;ratioP2
20639;SDS011;10479;53.524;9.846;2023-02-14T00:01:40;61.55;;;22.70;;
20639;SDS011;10479;53.524;9.846;2023-02-14T00:04:06;65.45;;;23.77;;
20639;SDS011;10479;53.524;9.846;2023-02-14T00:06:31;58.58;;;21.70;;
20639;SDS011;10479;53.524;9.846;2023-02-14T00:09:13;58.85;;;22.63;;
20639;SDS011;10479;53.524;9.846;2023-02-14T00:11:40;64.05;;;23.52;;
20639;SDS011;10479;53.524;9.846;2023-02-14T00:14:06;61.38;;;23.58;;
20639;SDS011;10479;53.524;9.846;2023-02-14T00:16:50;61.00;;;22.95;;
20639;SDS011;10479;53.524;9.846;2023-02-14T00:19:16;54.55;;;21.70;;
20639;SDS011;10479;53.524;9.846;2023-02-14T00:21:43;63.97;;;22.80;;
20639;SDS011;10479;53.524;9.846;2023-02-14T00:24:10;64.70;;;24.83;;
20639;SDS011;10479;53.524;9.846;2023-02-14T00:26:37;61.58;;;22.35;;
20639;SDS011;10479;53.524;9.846;2023-02-14T00:29:06;64.72;;;24.27;;
20639;SDS011;10479;53.524;9.846;2023-02-14T00:31:33;64.78;;;23.77;;
20639;SDS011;10479;53.524;9.846;2023-02-14T00:33:59;56.95;;;21.77;;
20639;SDS011;10479;53.524;9.846;2023-02-14T00:36:24;68.18;;;24.52;;
20639;SDS011;10479;53.524;9.846;2023-02-14T00:38:50;61.13;;;23.67;;
20639;SDS011;10479;53.524;9.846;2023-02-14T00:41:16;62.50;;;23.40;;
20639;SDS011;10479;53.524;9.846;2023-02-14T00:43:45;63.47;;;23.48;;
20639;SDS011;10479;53.524;9.846;2023-02-14T00:46:11;68.00;;;22.65;;
20639;SDS011;10479;53.524;9.846;2023-02-14T00:48:37;60.22;;;21.75;;
20639;SDS011;10479;53.524;9.846;2023-02-14T00:51:02;61.05;;;22.20;;
20639;SDS011;10479;53.524;9.846;2023-02-14T00:53:28;63.70;;;22.25;;
20639;SDS011;10479;53.524;9.846;2023-02-14T00:55:53;64.25;;;23.63;;
20639;SDS011;10479;53.524;9.846;2023-02-14T00:58:19;68.20;;;24.35;;
20639;SDS011;10479;53.524;9.846;2023-02-14T01:00:44;66.97;;;23.45;;
20639;SDS011;10479;53.524;9.846;2023-02-14T01:03:10;70.30;;;24.13;;
20639;SDS011;10479;53.524;9.846;2023-02-14T01:05:35;61.22;;;22.45;;
20639;SDS011;10479;53.524;9.846;2023-02-14T01:08:00;72.50;;;23.95;;
20639;SDS011;10479;53.524;9.846;2023-02-14T01:10:26;72.82;;;24.02;;
20639;SDS011;10479;53.524;9.846;2023-02-14T01:12:51;70.43;;;24.55;;
20639;SDS011;10479;53.524;9.846;2023-02-14T01:15:17;70.80;;;25.17;;
20639;SDS011;10479;53.524;9.846;2023-02-14T01:17:42;72.32;;;24.67;;
20639;SDS011;10479;53.524;9.846;2023-02-14T01:20:08;71.38;;;24.58;;
20639;SDS011;10479;53.524;9.846;2023-02-14T01:22:37;72.82;;;23.77;;
20639;SDS011;10479;53.524;9.846;2023-02-14T01:25:03;69.20;;;24.10;;
20639;SDS011;10479;53.524;9.846;2023-02-14T01:27:29;66.35;;;23.38;;
20639;SDS011;10479;53.524;9.846;2023-02-14T01:29:55;68.97;;;25.85;;
20639;SDS011;10479;53.524;9.846;2023-02-14T01:32:20;65.80;;;25.33;;
20639;SDS011;10479;53.524;9.846;2023-02-14T01:34:46;71.43;;;24.08;;
20639;SDS011;10479;53.524;9.846;2023-02-14T01:37:12;66.70;;;23.88;;
20639;SDS011;10479;53.524;9.846;2023-02-14T01:39:38;69.68;;;24.02;;
20639;SDS011;10479;53.524;9.846;2023-02-14T01:42:04;66.20;;;23.55;;
20639;SDS011;10479;53.524;9.846;2023-02-14T01:46:55;66.07;;;22.73;;
20639;SDS011;10479;53.524;9.846;2023-02-14T01:49:26;66.70;;;23.52;;
20639;SDS011;10479;53.524;9.846;2023-02-14T01:51:58;68.15;;;22.60;;
20639;SDS011;10479;53.524;9.846;2023-02-14T01:54:26;68.70;;;22.70;;
20639;SDS011;10479;53.524;9.846;2023-02-14T01:56:55;67.32;;;23.58;;
20639;SDS011;10479;53.524;9.846;2023-02-14T01:59:24;70.75;;;24.02;;
20639;SDS011;10479;53.524;9.846;2023-02-14T02:01:51;71.22;;;24.63;;
20639;SDS011;10479;53.524;9.846;2023-02-14T02:04:39;66.40;;;22.98;;
20639;SDS011;10479;53.524;9.846;2023-02-14T02:07:06;69.57;;;23.65;;
20639;SDS011;10479;53.524;9.846;2023-02-14T02:09:48;65.53;;;22.35;;
20639;SDS011;10479;53.524;9.846;2023-02-14T02:12:15;70.80;;;24.00;;
20639;SDS011;10479;53.524;9.846;2023-02-14T02:14:41;71.07;;;22.30;;
20639;SDS011;10479;53.524;9.846;2023-02-14T02:39:48;75.38;;;25.58;;
20639;SDS011;10479;53.524;9.846;2023-02-14T02:47:17;74.82;;;23.58;;
20639;SDS011;10479;53.524;9.846;2023-02-14T02:53:15;74.38;;;24.65;;
20639;SDS011;10479;53.524;9.846;2023-02-14T02:56:04;75.07;;;24.00;;
20639;SDS011;10479;53.524;9.846;2023-02-14T02:58:53;80.30;;;25.40;;
20639;SDS011;10479;53.524;9.846;2023-02-14T03:01:55;74.47;;;22.98;;
20639;SDS011;10479;53.524;9.846;2023-02-14T03:04:14;75.57;;;24.33;;
20639;SDS011;10479;53.524;9.846;2023-02-14T03:06:59;76.30;;;25.13;;
20639;SDS011;10479;53.524;9.846;2023-02-14T03:11:53;84.30;;;25.42;;
20639;SDS011;10479;53.524;9.846;2023-02-14T03:14:34;78.20;;;25.02;;
20639;SDS011;10479;53.524;9.846;2023-02-14T03:17:10;80.47;;;26.05;;
20639;SDS011;10479;53.524;9.846;2023-02-14T03:20:16;86.03;;;27.73;;
20639;SDS011;10479;53.524;9.846;2023-02-14T03:28:21;89.72;;;27.50;;
20639;SDS011;10479;53.524;9.846;2023-02-14T03:31:30;83.28;;;26.67;;
20639;SDS011;10479;53.524;9.846;2023-02-14T03:36:40;79.38;;;27.38;;
20639;SDS011;10479;53.524;9.846;2023-02-14T03:39:13;80.60;;;25.95;;
20639;SDS011;10479;53.524;9.846;2023-02-14T03:41:49;85.60;;;26.80;;
20639;SDS011;10479;53.524;9.846;2023-02-14T03:44:18;87.80;;;27.70;;
20639;SDS011;10479;53.524;9.846;2023-02-14T03:46:46;87.05;;;26.23;;
20639;SDS011;10479;53.524;9.846;2023-02-14T03:49:16;88.22;;;26.77;;
20639;SDS011;10479;53.524;9.846;2023-02-14T03:51:45;85.10;;;27.38;;
20639;SDS011;10479;53.524;9.846;2023-02-14T03:54:12;91.88;;;28.98;;
20639;SDS011;10479;53.524;9.846;2023-02-14T03:56:40;84.18;;;27.50;;
20639;SDS011;10479;53.524;9.846;2023-02-14T03:59:11;96.32;;;27.92;;
20639;SDS011;10479;53.524;9.846;2023-02-14T04:01:42;87.32;;;27.58;;
20639;SDS011;10479;53.524;9.846;2023-02-14T04:04:20;85.32;;;26.95;;
20639;SDS011;10479;53.524;9.846;2023-02-14T04:06:47;76.50;;;26.80;;
20639;SDS011;10479;53.524;9.846;2023-02-14T04:09:13;71.38;;;24.77;;
20639;SDS011;10479;53.524;9.846;2023-02-14T04:11:38;83.20;;;27.75;;
20639;SDS011;10479;53.524;9.846;2023-02-14T04:14:04;92.30;;;29.52;;
20639;SDS011;10479;53.524;9.846;2023-02-14T04:16:30;79.75;;;25.55;;
20639;SDS011;10479;53.524;9.846;2023-02-14T04:19:15;88.28;;;28.83;;
20639;SDS011;10479;53.524;9.846;2023-02-14T04:21:47;83.80;;;26.88;;
20639;SDS011;10479;53.524;9.846;2023-02-14T04:24:13;93.93;;;29.35;;
20639;SDS011;10479;53.524;9.846;2023-02-14T04:26:38;95.03;;;28.42;;
20639;SDS011;10479;53.524;9.846;2023-02-14T04:29:04;87.35;;;27.33;;
20639;SDS011;10479;53.524;9.846;2023-02-14T04:31:29;90.28;;;28.42;;
20639;SDS011;10479;53.524;9.846;2023-02-14T04:33:55;83.20;;;27.10;;
20639;SDS011;10479;53.524;9.846;2023-02-14T04:36:20;83.15;;;27.67;;
20639;SDS011;10479;53.524;9.846;2023-02-14T04:38:46;82.72;;;26.10;;
20639;SDS011;10479;53.524;9.846;2023-02-14T04:41:11;85.47;;;26.40;;
20639;SDS011;10479;53.524;9.846;2023-02-14T04:43:36;87.50;;;28.08;;
20639;SDS011;10479;53.524;9.846;2023-02-14T04:46:02;89.18;;;27.30;;
20639;SDS011;10479;53.524;9.846;2023-02-14T04:48:27;85.75;;;28.20;;
20639;SDS011;10479;53.524;9.846;2023-02-14T04:50:53;81.53;;;27.00;;
20639;SDS011;10479;53.524;9.846;2023-02-14T04:53:19;87.07;;;26.92;;
20639;SDS011;10479;53.524;9.846;2023-02-14T04:55:47;88.25;;;27.17;;
20639;SDS011;10479;53.524;9.846;2023-02-14T04:58:13;88.15;;;27.08;;
20639;SDS011;10479;53.524;9.846;2023-02-14T05:00:39;92.78;;;29.05;;
20639;SDS011;10479;53.524;9.846;2023-02-14T05:03:04;86.35;;;27.40;;
20639;SDS011;10479;53.524;9.846;2023-02-14T05:05:29;88.93;;;26.95;;
20639;SDS011;10479;53.524;9.846;2023-02-14T05:07:55;86.90;;;27.58;;
20639;SDS011;10479;53.524;9.846;2023-02-14T05:10:20;91.15;;;26.75;;
20639;SDS011;10479;53.524;9.846;2023-02-14T05:12:46;74.57;;;24.67;;
20639;SDS011;10479;53.524;9.846;2023-02-14T05:15:12;89.97;;;27.35;;
20639;SDS011;10479;53.524;9.846;2023-02-14T05:17:37;90.65;;;27.10;;
20639;SDS011;10479;53.524;9.846;2023-02-14T05:20:03;87.70;;;28.05;;
20639;SDS011;10479;53.524;9.846;2023-02-14T05:22:30;90.32;;;27.70;;
20639;SDS011;10479;53.524;9.846;2023-02-14T05:24:55;84.25;;;27.80;;
20639;SDS011;10479;53.524;9.846;2023-02-14T05:27:20;90.28;;;27.80;;
20639;SDS011;10479;53.524;9.846;2023-02-14T05:29:46;92.63;;;28.33;;
20639;SDS011;10479;53.524;9.846;2023-02-14T05:32:11;94.00;;;28.90;;
20639;SDS011;10479;53.524;9.846;2023-02-14T05:34:37;92.10;;;28.45;;
20639;SDS011;10479;53.524;9.846;2023-02-14T05:37:03;94.13;;;29.52;;
20639;SDS011;10479;53.524;9.846;2023-02-14T05:39:28;85.55;;;26.80;;
20639;SDS011;10479;53.524;9.846;2023-02-14T05:41:54;83.15;;;27.15;;
20639;SDS011;10479;53.524;9.846;2023-02-14T05:44:20;95.22;;;27.40;;
20639;SDS011;10479;53.524;9.846;2023-02-14T05:46:46;95.53;;;28.88;;
20639;SDS011;10479;53.524;9.846;2023-02-14T05:49:11;96.80;;;28.83;;
20639;SDS011;10479;53.524;9.846;2023-02-14T05:51:37;90.75;;;28.33;;
20639;SDS011;10479;53.524;9.846;2023-02-14T05:54:02;101.60;;;30.13;;
20639;SDS011;10479;53.524;9.846;2023-02-14T05:56:28;94.38;;;29.10;;
20639;SDS011;10479;53.524;9.846;2023-02-14T05:58:53;90.82;;;27.15;;
20639;SDS011;10479;53.524;9.846;2023-02-14T06:01:18;103.38;;;30.40;;
20639;SDS011;10479;53.524;9.846;2023-02-14T06:03:44;88.63;;;28.02;;
20639;SDS011;10479;53.524;9.846;2023-02-14T06:06:09;85.93;;;27.45;;
20639;SDS011;10479;53.524;9.846;2023-02-14T06:08:35;91.38;;;28.65;;
20639;SDS011;10479;53.524;9.846;2023-02-14T06:11:00;91.22;;;28.10;;
20639;SDS011;10479;53.524;9.846;2023-02-14T06:13:26;95.55;;;29.55;;
20639;SDS011;10479;53.524;9.846;2023-02-14T06:15:51;97.15;;;29.58;;
20639;SDS011;10479;53.524;9.846;2023-02-14T06:18:16;82.43;;;28.15;;
20639;SDS011;10479;53.524;9.846;2023-02-14T06:20:42;89.38;;;28.25;;
20639;SDS011;10479;53.524;9.846;2023-02-14T06:23:07;88.10;;;27.88;;
20639;SDS011;10479;53.524;9.846;2023-02-14T06:25:33;89.40;;;27.52;;
20639;SDS011;10479;53.524;9.846;2023-02-14T06:27:58;91.32;;;29.67;;
20639;SDS011;10479;53.524;9.846;2023-02-14T06:30:24;88.28;;;27.48;;
20639;SDS011;10479;53.524;9.846;2023-02-14T06:32:50;98.40;;;29.30;;
20639;SDS011;10479;53.524;9.846;2023-02-14T06:35:15;86.15;;;28.10;;
20639;SDS011;10479;53.524;9.846;2023-02-14T06:37:41;89.35;;;27.52;;
20639;SDS011;10479;53.524;9.846;2023-02-14T06:40:08;88.38;;;28.40;;
20639;SDS011;10479;53.524;9.846;2023-02-14T06:42:34;82.10;;;27.23;;
20639;SDS011;10479;53.524;9.846;2023-02-14T06:44:59;81.03;;;26.33;;
20639;SDS011;10479;53.524;9.846;2023-02-14T06:47:26;82.40;;;26.48;;
20639;SDS011;10479;53.524;9.846;2023-02-14T06:49:52;77.97;;;27.30;;
20639;SDS011;10479;53.524;9.846;2023-02-14T06:52:17;73.78;;;24.50;;
20639;SDS011;10479;53.524;9.846;2023-02-14T06:54:42;79.47;;;26.08;;
20639;SDS011;10479;53.524;9.846;2023-02-14T06:57:08;84.28;;;26.52;;
20639;SDS011;10479;53.524;9.846;2023-02-14T06:59:33;86.43;;;26.48;;
20639;SDS011;10479;53.524;9.846;2023-02-14T07:01:59;84.82;;;26.17;;
20639;SDS011;10479;53.524;9.846;2023-02-14T07:04:24;79.88;;;26.65;;
20639;SDS011;10479;53.524;9.846;2023-02-14T07:06:50;83.05;;;26.58;;
20639;SDS011;10479;53.524;9.846;2023-02-14T07:09:15;76.97;;;25.38;;
20639;SDS011;10479;53.524;9.846;2023-02-14T07:11:42;79.10;;;24.98;;
20639;SDS011;10479;53.524;9.846;2023-02-14T07:14:08;75.40;;;25.23;;
20639;SDS011;10479;53.524;9.846;2023-02-14T07:16:34;78.93;;;26.85;;
20639;SDS011;10479;53.524;9.846;2023-02-14T07:18:59;82.80;;;26.95;;
20639;SDS011;10479;53.524;9.846;2023-02-14T07:21:25;83.97;;;27.08;;
20639;SDS011;10479;53.524;9.846;2023-02-14T07:23:50;85.93;;;27.10;;
20639;SDS011;10479;53.524;9.846;2023-02-14T07:26:15;84.55;;;27.67;;
20639;SDS011;10479;53.524;9.846;2023-02-14T07:28:45;85.00;;;26.90;;
20639;SDS011;10479;53.524;9.846;2023-02-14T07:31:15;86.75;;;26.70;;
20639;SDS011;10479;53.524;9.846;2023-02-14T07:33:40;82.63;;;25.63;;
20639;SDS011;10479;53.524;9.846;2023-02-14T07:36:06;80.00;;;25.30;;
20639;SDS011;10479;53.524;9.846;2023-02-14T07:38:33;72.72;;;24.80;;
20639;SDS011;10479;53.524;9.846;2023-02-14T07:40:59;78.88;;;25.63;;
20639;SDS011;10479;53.524;9.846;2023-02-14T07:43:24;77.82;;;26.13;;
20639;SDS011;10479;53.524;9.846;2023-02-14T07:45:50;80.88;;;25.45;;
20639;SDS011;10479;53.524;9.846;2023-02-14T07:48:15;75.70;;;25.35;;
20639;SDS011;10479;53.524;9.846;2023-02-14T07:50:41;75.05;;;24.98;;
20639;SDS011;10479;53.524;9.846;2023-02-14T07:53:06;86.05;;;27.00;;
20639;SDS011;10479;53.524;9.846;2023-02-14T07:55:32;76.95;;;25.83;;
20639;SDS011;10479;53.524;9.846;2023-02-14T07:57:58;70.03;;;24.25;;
20639;SDS011;10479;53.524;9.846;2023-02-14T08:00:24;68.43;;;23.48;;
20639;SDS011;10479;53.524;9.846;2023-02-14T08:02:49;62.92;;;23.70;;
20639;SDS011;10479;53.524;9.846;2023-02-14T08:05:15;75.38;;;25.02;;
20639;SDS011;10479;53.524;9.846;2023-02-14T08:07:40;63.05;;;22.88;;
20639;SDS011;10479;53.524;9.846;2023-02-14T08:10:07;66.85;;;23.38;;
20639;SDS011;10479;53.524;9.846;2023-02-14T08:12:32;68.18;;;24.27;;
20639;SDS011;10479;53.524;9.846;2023-02-14T08:15:16;66.28;;;23.17;;
20639;SDS011;10479;53.524;9.846;2023-02-14T08:18:00;66.53;;;22.98;;
20639;SDS011;10479;53.524;9.846;2023-02-14T08:20:26;62.35;;;22.95;;
20639;SDS011;10479;53.524;9.846;2023-02-14T08:22:51;65.57;;;22.60;;
20639;SDS011;10479;53.524;9.846;2023-02-14T08:25:17;63.22;;;22.73;;
20639;SDS011;10479;53.524;9.846;2023-02-14T08:27:42;64.60;;;22.95;;
20639;SDS011;10479;53.524;9.846;2023-02-14T08:30:08;61.30;;;23.45;;
20639;SDS011;10479;53.524;9.846;2023-02-14T08:32:34;67.55;;;23.25;;
20639;SDS011;10479;53.524;9.846;2023-02-14T08:34:59;62.83;;;22.30;;
20639;SDS011;10479;53.524;9.846;2023-02-14T08:37:25;64.43;;;23.50;;
20639;SDS011;10479;53.524;9.846;2023-02-14T08:39:50;54.85;;;21.80;;
20639;SDS011;10479;53.524;9.846;2023-02-14T08:42:15;59.88;;;21.35;;
20639;SDS011;10479;53.524;9.846;2023-02-14T08:44:41;58.63;;;23.67;;
20639;SDS011;10479;53.524;9.846;2023-02-14T08:47:06;58.83;;;22.75;;
20639;SDS011;10479;53.524;9.846;2023-02-14T08:49:32;55.78;;;21.88;;
20639;SDS011;10479;53.524;9.846;2023-02-14T08:51:57;58.30;;;21.73;;
20639;SDS011;10479;53.524;9.846;2023-02-14T08:54:22;56.90;;;20.95;;
20639;SDS011;10479;53.524;9.846;2023-02-14T08:56:48;53.45;;;20.10;;
20639;SDS011;10479;53.524;9.846;2023-02-14T08:59:14;49.08;;;19.10;;
20639;SDS011;10479;53.524;9.846;2023-02-14T09:01:39;49.28;;;20.50;;
20639;SDS011;10479;53.524;9.846;2023-02-14T09:04:04;50.88;;;21.17;;
20639;SDS011;10479;53.524;9.846;2023-02-14T09:06:30;48.65;;;19.73;;
20639;SDS011;10479;53.524;9.846;2023-02-14T09:08:57;49.85;;;20.30;;
20639;SDS011;10479;53.524;9.846;2023-02-14T09:11:24;49.05;;;20.48;;
20639;SDS011;10479;53.524;9.846;2023-02-14T09:13:51;45.90;;;19.40;;
20639;SDS011;10479;53.524;9.846;2023-02-14T09:16:19;53.33;;;21.45;;
20639;SDS011;10479;53.524;9.846;2023-02-14T09:18:48;46.28;;;18.92;;
20639;SDS011;10479;53.524;9.846;2023-02-14T09:21:16;45.38;;;18.52;;
20639;SDS011;10479;53.524;9.846;2023-02-14T09:23:47;45.95;;;20.20;;
20639;SDS011;10479;53.524;9.846;2023-02-14T09:26:14;45.63;;;18.75;;
20639;SDS011;10479;53.524;9.846;2023-02-14T09:28:43;44.65;;;19.42;;
20639;SDS011;10479;53.524;9.846;2023-02-14T09:31:11;48.95;;;19.95;;
20639;SDS011;10479;53.524;9.846;2023-02-14T09:33:41;48.83;;;20.80;;
20639;SDS011;10479;53.524;9.846;2023-02-14T09:36:07;42.00;;;18.67;;
20639;SDS011;10479;53.524;9.846;2023-02-14T09:38:37;41.25;;;18.08;;
20639;SDS011;10479;53.524;9.846;2023-02-14T09:49:58;43.42;;;19.77;;
20639;SDS011;10479;53.524;9.846;2023-02-14T09:52:26;45.40;;;18.98;;
20639;SDS011;10479;53.524;9.846;2023-02-14T09:54:57;43.17;;;18.80;;
20639;SDS011;10479;53.524;9.846;2023-02-14T09:57:40;40.10;;;18.80;;
20639;SDS011;10479;53.524;9.846;2023-02-14T10:00:30;44.72;;;20.48;;
20639;SDS011;10479;53.524;9.846;2023-02-14T10:05:43;41.40;;;18.85;;
20639;SDS011;10479;53.524;9.846;2023-02-14T10:08:32;47.58;;;21.25;;
20639;SDS011;10479;53.524;9.846;2023-02-14T10:11:14;45.50;;;21.02;;
20639;SDS011;10479;53.524;9.846;2023-02-14T10:13:53;45.72;;;20.08;;
20639;SDS011;10479;53.524;9.846;2023-02-14T10:16:49;45.15;;;21.50;;
20639;SDS011;10479;53.524;9.846;2023-02-14T10:22:03;42.03;;;20.48;;
20639;SDS011;10479;53.524;9.846;2023-02-14T10:30:14;44.92;;;19.67;;
20639;SDS011;10479;53.524;9.846;2023-02-14T10:32:46;42.25;;;19.42;;
20639;SDS011;10479;53.524;9.846;2023-02-14T10:43:34;41.97;;;19.48;;
20639;SDS011;10479;53.524;9.846;2023-02-14T10:48:45;40.95;;;19.65;;
20639;SDS011;10479;53.524;9.846;2023-02-14T10:54:11;38.75;;;19.75;;
20639;SDS011;10479;53.524;9.846;2023-02-14T10:56:50;42.53;;;20.00;;
20639;SDS011;10479;53.524;9.846;2023-02-14T10:59:22;37.58;;;18.65;;
20639;SDS011;10479;53.524;9.846;2023-02-14T11:01:52;41.88;;;20.17;;
20639;SDS011;10479;53.524;9.846;2023-02-14T11:04:19;42.85;;;20.20;;
20639;SDS011;10479;53.524;9.846;2023-02-14T11:06:46;45.58;;;20.90;;
20639;SDS011;10479;53.524;9.846;2023-02-14T11:09:18;39.00;;;18.80;;
20639;SDS011;10479;53.524;9.846;2023-02-14T11:11:54;47.15;;;21.05;;
20639;SDS011;10479;53.524;9.846;2023-02-14T11:14:25;41.47;;;20.80;;
20639;SDS011;10479;53.524;9.846;2023-02-14T11:16:54;45.45;;;21.73;;
20639;SDS011;10479;53.524;9.846;2023-02-14T11:19:28;51.17;;;22.73;;
20639;SDS011;10479;53.524;9.846;2023-02-14T11:21:57;48.53;;;22.52;;
20639;SDS011;10479;53.524;9.846;2023-02-14T11:24:28;40.40;;;19.75;;
20639;SDS011;10479;53.524;9.846;2023-02-14T11:27:02;43.38;;;20.63;;
20639;SDS011;10479;53.524;9.846;2023-02-14T11:29:34;43.33;;;21.35;;
20639;SDS011;10479;53.524;9.846;2023-02-14T11:32:10;41.20;;;20.35;;
20639;SDS011;10479;53.524;9.846;2023-02-14T11:34:40;51.13;;;22.00;;
20639;SDS011;10479;53.524;9.846;2023-02-14T11:42:59;44.55;;;22.88;;
20639;SDS011;10479;53.524;9.846;2023-02-14T11:45:38;43.25;;;19.98;;
20639;SDS011;10479;53.524;9.846;2023-02-14T11:50:34;47.25;;;22.10;;
20639;SDS011;10479;53.524;9.846;2023-02-14T11:53:00;42.25;;;20.92;;
20639;SDS011;10479;53.524;9.846;2023-02-14T11:55:27;40.22;;;19.58;;
20639;SDS011;10479;53.524;9.846;2023-02-14T11:57:54;40.20;;;21.10;;
20639;SDS011;10479;53.524;9.846;2023-02-14T12:00:21;42.80;;;19.65;;
20639;SDS011;10479;53.524;9.846;2023-02-14T12:02:48;40.08;;;19.67;;
20639;SDS011;10479;53.524;9.846;2023-02-14T12:07:53;41.03;;;19.42;;
20639;SDS011;10479;53.524;9.846;2023-02-14T12:12:50;31.67;;;17.15;;
20639;SDS011;10479;53.524;9.846;2023-02-14T12:15:28;40.13;;;19.08;;
20639;SDS011;10479;53.524;9.846;2023-02-14T12:26:37;35.33;;;18.17;;
20639;SDS011;10479;53.524;9.846;2023-02-14T12:29:21;39.30;;;19.30;;
20639;SDS011;10479;53.524;9.846;2023-02-14T12:31:50;45.47;;;19.27;;
20639;SDS011;10479;53.524;9.846;2023-02-14T12:34:17;37.92;;;17.88;;
20639;SDS011;10479;53.524;9.846;2023-02-14T12:39:19;35.35;;;17.40;;
20639;SDS011;10479;53.524;9.846;2023-02-14T12:42:00;37.08;;;17.40;;
20639;SDS011;10479;53.524;9.846;2023-02-14T12:47:18;36.15;;;17.83;;
20639;SDS011;10479;53.524;9.846;2023-02-14T12:55:40;39.75;;;19.90;;
20639;SDS011;10479;53.524;9.846;2023-02-14T13:01:24;36.25;;;18.55;;
20639;SDS011;10479;53.524;9.846;2023-02-14T13:06:34;33.38;;;16.33;;
20639;SDS011;10479;53.524;9.846;2023-02-14T13:09:04;35.05;;;16.83;;
20639;SDS011;10479;53.524;9.846;2023-02-14T13:17:28;33.73;;;18.07;;
20639;SDS011;10479;53.524;9.846;2023-02-14T13:20:05;35.58;;;17.92;;
20639;SDS011;10479;53.524;9.846;2023-02-14T13:22:59;33.22;;;16.33;;
20639;SDS011;10479;53.524;9.846;2023-02-14T13:25:34;34.30;;;16.75;;
20639;SDS011;10479;53.524;9.846;2023-02-14T13:28:11;35.03;;;18.02;;
20639;SDS011;10479;53.524;9.846;2023-02-14T13:30:37;33.03;;;16.80;;
20639;SDS011;10479;53.524;9.846;2023-02-14T13:36:08;34.75;;;17.50;;
20639;SDS011;10479;53.524;9.846;2023-02-14T13:38:45;33.33;;;16.63;;
20639;SDS011;10479;53.524;9.846;2023-02-14T13:41:16;32.67;;;17.00;;
20639;SDS011;10479;53.524;9.846;2023-02-14T13:43:46;35.65;;;16.55;;
20639;SDS011;10479;53.524;9.846;2023-02-14T13:51:49;31.35;;;16.05;;
20639;SDS011;10479;53.524;9.846;2023-02-14T14:02:45;35.30;;;17.63;;
20639;SDS011;10479;53.524;9.846;2023-02-14T14:08:43;37.65;;;16.30;;
20639;SDS011;10479;53.524;9.846;2023-02-14T14:11:09;32.72;;;15.90;;
20639;SDS011;10479;53.524;9.846;2023-02-14T14:21:41;35.35;;;16.73;;
20639;SDS011;10479;53.524;9.846;2023-02-14T14:26:46;32.90;;;16.83;;
20639;SDS011;10479;53.524;9.846;2023-02-14T14:32:15;33.30;;;16.73;;
20639;SDS011;10479;53.524;9.846;2023-02-14T14:34:59;34.38;;;16.48;;
20639;SDS011;10479;53.524;9.846;2023-02-14T14:37:32;34.40;;;16.88;;
20639;SDS011;10479;53.524;9.846;2023-02-14T14:40:03;32.58;;;14.75;;
20639;SDS011;10479;53.524;9.846;2023-02-14T14:42:34;32.63;;;15.63;;
20639;SDS011;10479;53.524;9.846;2023-02-14T14:45:03;36.45;;;16.33;;
20639;SDS011;10479;53.524;9.846;2023-02-14T14:47:41;33.97;;;15.25;;
20639;SDS011;10479;53.524;9.846;2023-02-14T14:50:15;40.70;;;17.05;;
20639;SDS011;10479;53.524;9.846;2023-02-14T14:52:45;36.22;;;17.75;;
20639;SDS011;10479;53.524;9.846;2023-02-14T14:55:19;38.33;;;17.10;;
20639;SDS011;10479;53.524;9.846;2023-02-14T14:57:50;35.60;;;16.65;;
20639;SDS011;10479;53.524;9.846;2023-02-14T15:00:19;38.38;;;18.73;;
20639;SDS011;10479;53.524;9.846;2023-02-14T15:03:05;38.45;;;17.58;;
20639;SDS011;10479;53.524;9.846;2023-02-14T15:18:48;37.58;;;17.33;;
20639;SDS011;10479;53.524;9.846;2023-02-14T15:21:15;38.25;;;19.02;;
20639;SDS011;10479;53.524;9.846;2023-02-14T15:23:41;35.88;;;17.23;;
20639;SDS011;10479;53.524;9.846;2023-02-14T15:26:17;36.42;;;17.08;;
20639;SDS011;10479;53.524;9.846;2023-02-14T15:28:52;35.80;;;16.58;;
20639;SDS011;10479;53.524;9.846;2023-02-14T15:31:19;33.13;;;16.88;;
20639;SDS011;10479;53.524;9.846;2023-02-14T15:33:44;40.13;;;17.15;;
20639;SDS011;10479;53.524;9.846;2023-02-14T15:36:17;33.20;;;15.77;;
20639;SDS011;10479;53.524;9.846;2023-02-14T15:38:44;35.63;;;16.42;;
20639;SDS011;10479;53.524;9.846;2023-02-14T15:41:10;37.13;;;16.55;;
20639;SDS011;10479;53.524;9.846;2023-02-14T15:43:37;34.50;;;16.10;;
20639;SDS011;10479;53.524;9.846;2023-02-14T15:48:51;35.97;;;17.58;;
20639;SDS011;10479;53.524;9.846;2023-02-14T15:51:21;38.33;;;16.65;;
20639;SDS011;10479;53.524;9.846;2023-02-14T15:56:35;37.28;;;16.63;;
20639;SDS011;10479;53.524;9.846;2023-02-14T15:59:10;39.28;;;16.98;;
20639;SDS011;10479;53.524;9.846;2023-02-14T16:01:38;34.53;;;15.82;;
20639;SDS011;10479;53.524;9.846;2023-02-14T16:04:04;39.17;;;18.42;;
20639;SDS011;10479;53.524;9.846;2023-02-14T16:09:00;38.00;;;17.10;;
20639;SDS011;10479;53.524;9.846;2023-02-14T16:11:31;38.83;;;16.83;;
20639;SDS011;10479;53.524;9.846;2023-02-14T16:14:18;38.55;;;16.35;;
20639;SDS011;10479;53.524;9.846;2023-02-14T16:16:55;38.45;;;16.38;;
20639;SDS011;10479;53.524;9.846;2023-02-14T16:19:31;39.65;;;15.95;;
20639;SDS011;10479;53.524;9.846;2023-02-14T16:22:01;41.80;;;17.23;;
20639;SDS011;10479;53.524;9.846;2023-02-14T16:24:26;40.00;;;17.15;;
20639;SDS011;10479;53.524;9.846;2023-02-14T16:26:53;41.38;;;17.88;;
20639;SDS011;10479;53.524;9.846;2023-02-14T16:29:19;38.65;;;17.58;;
20639;SDS011;10479;53.524;9.846;2023-02-14T16:31:47;40.22;;;16.90;;
20639;SDS011;10479;53.524;9.846;2023-02-14T16:34:14;42.67;;;17.80;;
20639;SDS011;10479;53.524;9.846;2023-02-14T16:36:39;41.90;;;17.73;;
20639;SDS011;10479;53.524;9.846;2023-02-14T16:39:05;41.22;;;17.92;;
20639;SDS011;10479;53.524;9.846;2023-02-14T16:41:37;47.72;;;18.63;;
20639;SDS011;10479;53.524;9.846;2023-02-14T16:44:10;41.33;;;17.27;;
20639;SDS011;10479;53.524;9.846;2023-02-14T16:46:36;54.33;;;18.05;;
20639;SDS011;10479;53.524;9.846;2023-02-14T16:49:02;47.40;;;18.33;;
20639;SDS011;10479;53.524;9.846;2023-02-14T16:51:28;43.83;;;17.40;;
20639;SDS011;10479;53.524;9.846;2023-02-14T16:53:56;41.75;;;17.75;;
20639;SDS011;10479;53.524;9.846;2023-02-14T16:59:04;43.28;;;17.98;;
20639;SDS011;10479;53.524;9.846;2023-02-14T17:01:30;43.92;;;17.10;;
20639;SDS011;10479;53.524;9.846;2023-02-14T17:03:56;44.38;;;18.00;;
20639;SDS011;10479;53.524;9.846;2023-02-14T17:06:23;39.88;;;17.48;;
20639;SDS011;10479;53.524;9.846;2023-02-14T17:08:52;44.15;;;17.75;;
20639;SDS011;10479;53.524;9.846;2023-02-14T17:11:18;43.50;;;17.70;;
20639;SDS011;10479;53.524;9.846;2023-02-14T17:13:44;43.78;;;17.75;;
20639;SDS011;10479;53.524;9.846;2023-02-14T17:16:11;42.72;;;17.25;;
20639;SDS011;10479;53.524;9.846;2023-02-14T17:18:39;47.03;;;17.75;;
20639;SDS011;10479;53.524;9.846;2023-02-14T17:21:07;45.88;;;17.75;;
20639;SDS011;10479;53.524;9.846;2023-02-14T17:23:33;48.95;;;18.50;;
20639;SDS011;10479;53.524;9.846;2023-02-14T17:25:58;48.53;;;17.35;;
20639;SDS011;10479;53.524;9.846;2023-02-14T17:28:24;49.33;;;18.77;;
20639;SDS011;10479;53.524;9.846;2023-02-14T17:30:50;42.55;;;17.35;;
20639;SDS011;10479;53.524;9.846;2023-02-14T17:33:16;44.97;;;18.88;;